createdAt,value
2023-05-20T00:01:00.930Z,5.30
2023-05-20T00:02:04.243Z,5.52
2023-05-20T00:03:07.621Z,4.69
2023-05-20T00:04:11.145Z,4.62
2023-05-20T00:05:14.558Z,5.36
2023-05-20T00:06:17.902Z,5.53
2023-05-20T00:07:21.188Z,5.56
2023-05-20T00:08:24.593Z,5.01
2023-05-20T00:09:27.835Z,4.59
2023-05-20T00:10:31.275Z,4.69
2023-05-20T00:11:34.497Z,4.20
2023-05-20T00:12:39.775Z,4.35
2023-05-20T00:13:43.037Z,4.26
2023-05-20T00:14:46.355Z,4.84
2023-05-20T00:15:49.660Z,4.66
2023-05-20T00:16:52.995Z,4.69
2023-05-20T00:17:57.290Z,4.68
2023-05-20T00:19:00.827Z,5.23
2023-05-20T00:20:06.071Z,5.17
2023-05-20T00:21:09.318Z,4.53
2023-05-20T00:22:12.751Z,4.80
2023-05-20T00:23:16.024Z,5.20
2023-05-20T00:24:19.389Z,5.62
2023-05-20T00:25:23.357Z,5.51
2023-05-20T00:26:27.442Z,5.40
2023-05-20T00:27:33.112Z,5.52
2023-05-20T00:28:36.323Z,5.42
2023-05-20T00:29:39.700Z,5.90
2023-05-20T00:30:43.242Z,5.64
2023-05-20T00:31:46.686Z,5.68
2023-05-20T00:32:50.154Z,4.94
2023-05-20T00:33:53.629Z,5.51
2023-05-20T00:35:00.714Z,5.66
2023-05-20T00:36:04.328Z,5.24
2023-05-20T00:37:07.606Z,5.57
2023-05-20T00:38:10.849Z,4.93
2023-05-20T00:39:16.164Z,6.12
2023-05-20T00:40:19.584Z,5.21
2023-05-20T00:41:22.898Z,5.45
2023-05-20T00:42:28.664Z,5.49
2023-05-20T00:43:32.905Z,5.84
2023-05-20T00:44:36.131Z,4.92
2023-05-20T00:45:40.255Z,6.37
2023-05-20T00:46:43.627Z,6.95
2023-05-20T00:47:47.057Z,6.25
2023-05-20T00:48:52.102Z,6.76
2023-05-20T00:49:55.653Z,5.72
2023-05-20T00:50:58.972Z,5.92
2023-05-20T00:52:02.591Z,6.45
2023-05-20T00:53:07.377Z,5.99
2023-05-20T00:54:11.729Z,6.21
2023-05-20T00:55:15.171Z,5.84
2023-05-20T00:56:19.600Z,5.36
2023-05-20T00:57:23.127Z,6.24
2023-05-20T00:58:26.648Z,6.07
2023-05-20T00:59:30.418Z,5.87
2023-05-20T01:00:33.955Z,4.89
2023-05-20T01:01:37.217Z,6.12
2023-05-20T01:02:40.849Z,6.49
2023-05-20T01:03:44.231Z,6.19
2023-05-20T01:04:48.109Z,6.15
2023-05-20T01:05:51.490Z,5.76
2023-05-20T01:06:56.471Z,5.54
2023-05-20T01:08:00.513Z,5.45
2023-05-20T01:09:04.088Z,6.34
2023-05-20T01:10:08.502Z,4.88
2023-05-20T01:11:30.464Z,5.81
2023-05-20T01:12:46.883Z,7.47
2023-05-20T01:13:59.267Z,6.76
2023-05-20T01:15:09.400Z,5.48
2023-05-20T01:16:15.477Z,5.74
2023-05-20T01:17:22.256Z,5.97
2023-05-20T01:18:30.979Z,6.36
2023-05-20T01:19:45.593Z,6.24
2023-05-20T01:20:52.035Z,5.24
2023-05-20T01:21:57.951Z,5.08
2023-05-20T01:23:01.240Z,4.79
2023-05-20T01:24:06.567Z,5.43
2023-05-20T01:25:10.146Z,5.62
2023-05-20T01:26:14.428Z,6.07
2023-05-20T01:27:17.665Z,5.64
2023-05-20T01:28:22.092Z,5.49
2023-05-20T01:29:27.892Z,5.11
2023-05-20T01:30:39.298Z,5.74
2023-05-20T01:31:43.283Z,6.31
2023-05-20T01:33:00.819Z,7.00
2023-05-20T01:34:07.934Z,6.47
2023-05-20T01:35:11.912Z,6.42
2023-05-20T01:36:16.411Z,6.14
2023-05-20T01:37:24.154Z,6.74
2023-05-20T01:38:28.538Z,6.70
2023-05-20T01:39:33.400Z,6.18
2023-05-20T01:40:37.501Z,6.67
2023-05-20T01:41:42.808Z,6.43
2023-05-20T01:42:47.350Z,5.87
2023-05-20T01:43:50.738Z,5.99
2023-05-20T01:44:54.897Z,5.98
2023-05-20T01:45:58.281Z,5.77
2023-05-20T01:47:02.401Z,5.49
2023-05-20T01:48:06.481Z,5.63
2023-05-20T01:49:09.858Z,6.23
2023-05-20T01:50:13.216Z,5.56
2023-05-20T01:51:16.869Z,6.60
2023-05-20T01:52:21.612Z,6.16
2023-05-20T01:53:25.016Z,6.61
2023-05-20T01:54:28.268Z,6.62
2023-05-20T01:55:32.164Z,5.85
2023-05-20T01:56:36.773Z,5.97
2023-05-20T01:57:40.068Z,7.34
2023-05-20T01:58:43.638Z,6.92
2023-05-20T01:59:47.264Z,7.37
2023-05-20T02:00:50.643Z,7.18
2023-05-20T02:01:54.714Z,8.16
2023-05-20T02:02:58.198Z,6.56
2023-05-20T02:04:01.606Z,6.59
2023-05-20T02:05:06.852Z,6.11
2023-05-20T02:06:11.205Z,6.01
2023-05-20T02:07:15.795Z,6.54
2023-05-20T02:08:19.180Z,6.14
2023-05-20T02:09:22.430Z,5.79
2023-05-20T02:10:25.802Z,5.88
2023-05-20T02:11:29.278Z,5.90
2023-05-20T02:12:32.833Z,5.65
2023-05-20T02:13:36.211Z,6.31
2023-05-20T02:14:39.796Z,6.33
2023-05-20T02:15:43.531Z,5.51
2023-05-20T02:16:48.784Z,5.94
2023-05-20T02:17:52.200Z,5.45
2023-05-20T02:18:55.479Z,5.50
2023-05-20T02:19:59.282Z,5.86
2023-05-20T02:21:04.797Z,6.30
2023-05-20T02:22:08.470Z,5.17
2023-05-20T02:23:12.856Z,6.13
2023-05-20T02:24:16.735Z,6.84
2023-05-20T02:25:20.037Z,7.44
2023-05-20T02:26:23.449Z,6.90
2023-05-20T02:27:26.862Z,6.75
2023-05-20T02:28:30.144Z,6.50
2023-05-20T02:29:33.572Z,6.96
2023-05-20T02:30:37.786Z,6.45
2023-05-20T02:31:41.007Z,6.80
2023-05-20T02:32:44.307Z,7.44
2023-05-20T02:33:48.373Z,6.89
2023-05-20T02:34:51.750Z,7.35
2023-05-20T02:35:57.323Z,7.08
2023-05-20T02:37:00.626Z,7.38
2023-05-20T02:38:03.886Z,7.07
2023-05-20T02:39:07.164Z,6.33
2023-05-20T02:40:11.011Z,5.61
2023-05-20T02:41:15.969Z,6.82
2023-05-20T02:42:19.396Z,5.98
2023-05-20T02:43:22.907Z,6.19
2023-05-20T02:44:26.154Z,6.66
2023-05-20T02:45:31.852Z,6.45
2023-05-20T02:46:35.443Z,6.67
2023-05-20T02:47:38.880Z,6.26
2023-05-20T02:48:42.344Z,6.30
2023-05-20T02:49:45.741Z,5.68
2023-05-20T02:50:49.278Z,6.52
2023-05-20T02:51:52.520Z,5.45
2023-05-20T02:52:56.630Z,5.36
2023-05-20T02:54:00.247Z,5.44
2023-05-20T02:55:03.978Z,5.33
2023-05-20T02:56:08.742Z,5.84
2023-05-20T02:57:12.536Z,5.44
2023-05-20T02:58:16.088Z,6.53
2023-05-20T02:59:20.941Z,6.18
2023-05-20T03:00:24.445Z,6.23
2023-05-20T03:01:27.824Z,5.97
2023-05-20T03:02:31.156Z,6.51
2023-05-20T03:03:34.777Z,6.23
2023-05-20T03:04:41.841Z,5.78
2023-05-20T03:05:46.904Z,6.06
2023-05-20T03:06:50.273Z,6.10
2023-05-20T03:07:53.743Z,6.22
2023-05-20T03:08:57.432Z,5.55
2023-05-20T03:10:03.514Z,5.51
2023-05-20T03:11:07.070Z,5.85
2023-05-20T03:12:10.280Z,6.52
2023-05-20T03:13:15.902Z,6.16
2023-05-20T03:14:19.193Z,5.70
2023-05-20T03:15:22.435Z,6.68
2023-05-20T03:16:26.559Z,6.39
2023-05-20T03:17:29.998Z,5.74
2023-05-20T03:18:34.015Z,5.94
2023-05-20T03:19:37.738Z,5.55
2023-05-20T03:20:42.298Z,6.27
2023-05-20T03:21:47.321Z,6.55
2023-05-20T03:22:51.169Z,5.83
2023-05-20T03:23:55.260Z,5.78
2023-05-20T03:24:59.131Z,5.81
2023-05-20T03:26:02.544Z,5.20
2023-05-20T03:27:06.154Z,5.10
2023-05-20T03:28:11.139Z,5.02
2023-05-20T03:29:14.545Z,6.04
2023-05-20T03:30:18.552Z,5.54
2023-05-20T03:31:21.885Z,5.16
2023-05-20T03:32:26.454Z,5.53
2023-05-20T03:33:30.734Z,6.65
2023-05-20T03:34:34.205Z,5.80
2023-05-20T03:35:37.818Z,5.74
2023-05-20T03:36:41.310Z,6.02
2023-05-20T03:37:45.580Z,6.13
2023-05-20T03:38:49.649Z,6.09
2023-05-20T03:39:53.076Z,6.38
2023-05-20T03:40:56.499Z,5.78
2023-05-20T03:41:59.843Z,5.32
2023-05-20T03:43:03.220Z,6.49
2023-05-20T03:44:06.639Z,7.41
2023-05-20T03:45:10.550Z,8.36
2023-05-20T03:46:21.566Z,10.08
2023-05-20T03:47:24.995Z,9.42
2023-05-20T03:48:28.490Z,9.23
2023-05-20T03:49:31.795Z,9.10
2023-05-20T03:50:35.293Z,8.62
2023-05-20T03:51:38.722Z,7.61
2023-05-20T03:52:47.044Z,8.17
2023-05-20T03:53:51.790Z,7.29
2023-05-20T03:54:55.845Z,6.91
2023-05-20T03:55:59.273Z,6.73
2023-05-20T03:57:03.932Z,6.79
2023-05-20T03:58:07.181Z,6.89
2023-05-20T03:59:11.112Z,6.92
2023-05-20T04:00:15.453Z,5.64
2023-05-20T04:01:21.962Z,6.11
2023-05-20T04:02:25.462Z,5.96
2023-05-20T04:03:29.754Z,6.00
2023-05-20T04:04:33.221Z,6.16
2023-05-20T04:05:37.900Z,5.23
2023-05-20T04:06:48.545Z,5.83
2023-05-20T04:07:51.940Z,4.97
2023-05-20T04:08:58.661Z,5.22
2023-05-20T04:10:02.426Z,4.70
2023-05-20T04:11:06.581Z,4.62
2023-05-20T04:12:09.870Z,4.50
2023-05-20T04:13:13.298Z,5.62
2023-05-20T04:14:17.803Z,5.24
2023-05-20T04:15:21.179Z,5.35
2023-05-20T04:16:35.068Z,5.19
2023-05-20T04:17:39.120Z,4.83
2023-05-20T04:18:42.681Z,5.85
2023-05-20T04:19:45.965Z,5.01
2023-05-20T04:20:49.268Z,5.66
2023-05-20T04:21:53.957Z,5.52
2023-05-20T04:22:57.772Z,4.89
2023-05-20T04:24:01.341Z,4.77
2023-05-20T04:25:07.289Z,5.43
2023-05-20T04:26:10.767Z,6.08
2023-05-20T04:27:14.708Z,5.57
2023-05-20T04:28:18.142Z,5.35
2023-05-20T04:29:21.928Z,5.69
2023-05-20T04:30:25.540Z,6.26
2023-05-20T04:31:29.320Z,6.82
2023-05-20T04:32:32.839Z,6.68
2023-05-20T04:33:38.730Z,7.03
2023-05-20T04:34:43.605Z,7.90
2023-05-20T04:35:49.326Z,6.59
2023-05-20T04:36:52.834Z,7.53
2023-05-20T04:37:56.843Z,8.31
2023-05-20T04:39:00.189Z,8.07
2023-05-20T04:40:03.961Z,7.41
2023-05-20T04:41:08.466Z,7.16
2023-05-20T04:42:11.904Z,7.64
2023-05-20T04:43:15.798Z,6.94
2023-05-20T04:44:19.050Z,6.90
2023-05-20T04:45:24.095Z,7.15
2023-05-20T04:46:28.029Z,7.80
2023-05-20T04:47:32.537Z,6.18
2023-05-20T04:48:35.993Z,7.49
2023-05-20T04:49:39.625Z,8.31
2023-05-20T04:50:43.615Z,7.72
2023-05-20T04:51:48.211Z,7.19
2023-05-20T04:52:52.448Z,7.01
2023-05-20T04:53:55.644Z,7.88
2023-05-20T04:54:59.719Z,6.95
2023-05-20T04:56:04.020Z,7.45
2023-05-20T04:57:07.833Z,7.01
2023-05-20T04:58:16.411Z,6.71
2023-05-20T04:59:20.477Z,6.95
2023-05-20T05:00:24.351Z,7.29
2023-05-20T05:01:27.666Z,7.35
2023-05-20T05:02:31.040Z,6.42
2023-05-20T05:03:36.545Z,6.15
2023-05-20T05:04:40.862Z,6.15
2023-05-20T05:05:45.459Z,5.35
2023-05-20T05:06:51.318Z,5.80
2023-05-20T05:07:54.683Z,5.63
2023-05-20T05:08:58.187Z,5.45
2023-05-20T05:10:03.292Z,5.46
2023-05-20T05:11:08.462Z,6.00
2023-05-20T05:12:11.861Z,5.20
2023-05-20T05:13:15.984Z,5.18
2023-05-20T05:14:19.773Z,5.55
2023-05-20T05:15:23.169Z,5.01
2023-05-20T05:16:26.692Z,4.90
2023-05-20T05:17:30.076Z,5.02
2023-05-20T05:18:34.545Z,5.34
2023-05-20T05:19:37.934Z,5.96
2023-05-20T05:20:41.962Z,5.71
2023-05-20T05:21:45.323Z,4.86
2023-05-20T05:22:48.662Z,5.76
2023-05-20T05:23:51.904Z,5.66
2023-05-20T05:24:56.496Z,5.00
2023-05-20T05:26:00.519Z,6.03
2023-05-20T05:27:04.415Z,5.83
2023-05-20T05:28:08.014Z,5.68
2023-05-20T05:29:11.909Z,5.66
2023-05-20T05:30:15.441Z,5.43
2023-05-20T05:31:20.085Z,5.18
2023-05-20T05:32:23.669Z,5.44
2023-05-20T05:33:27.395Z,5.10
2023-05-20T05:34:32.069Z,5.20
2023-05-20T05:35:35.989Z,5.17
2023-05-20T05:36:41.806Z,5.14
2023-05-20T05:37:45.941Z,5.30
2023-05-20T05:38:49.425Z,4.80
2023-05-20T05:39:53.184Z,5.39
2023-05-20T05:40:57.013Z,5.44
2023-05-20T05:42:00.451Z,5.21
2023-05-20T05:43:04.031Z,5.85
2023-05-20T05:44:07.640Z,5.36
2023-05-20T05:45:12.036Z,6.73
2023-05-20T05:46:15.700Z,5.91
2023-05-20T05:47:20.206Z,5.33
2023-05-20T05:48:24.089Z,5.44
2023-05-20T05:49:27.629Z,5.49
2023-05-20T05:50:30.951Z,5.56
2023-05-20T05:51:35.042Z,5.72
2023-05-20T05:52:39.704Z,5.39
2023-05-20T05:53:45.418Z,4.65
2023-05-20T05:54:48.683Z,5.40
2023-05-20T05:55:52.094Z,5.07
2023-05-20T05:56:57.471Z,5.56
2023-05-20T05:58:02.588Z,6.17
2023-05-20T05:59:07.044Z,5.24
2023-05-20T06:00:11.308Z,5.69
2023-05-20T06:01:23.536Z,6.52
2023-05-20T06:02:27.046Z,5.96
2023-05-20T06:03:31.746Z,5.92
2023-05-20T06:04:35.073Z,5.64
2023-05-20T06:05:38.609Z,6.12
2023-05-20T06:06:42.458Z,5.40
2023-05-20T06:07:45.816Z,5.06
2023-05-20T06:08:49.307Z,5.18
2023-05-20T06:09:52.661Z,5.55
2023-05-20T06:10:56.422Z,6.13
2023-05-20T06:11:59.675Z,6.52
2023-05-20T06:13:02.940Z,5.94
2023-05-20T06:14:07.223Z,6.28
2023-05-20T06:15:11.114Z,6.05
2023-05-20T06:16:15.079Z,5.52
2023-05-20T06:17:18.309Z,5.64
2023-05-20T06:18:21.785Z,5.27
2023-05-20T06:19:27.390Z,5.82
2023-05-20T06:20:31.550Z,6.25
2023-05-20T06:21:34.918Z,6.05
2023-05-20T06:22:39.047Z,6.13
2023-05-20T06:23:42.963Z,5.63
2023-05-20T06:24:48.127Z,5.28
2023-05-20T06:25:51.901Z,5.62
2023-05-20T06:26:56.424Z,5.09
2023-05-20T06:28:00.482Z,5.09
2023-05-20T06:29:04.593Z,5.52
2023-05-20T06:30:08.617Z,5.17
2023-05-20T06:31:11.985Z,4.70
2023-05-20T06:32:16.140Z,4.80
2023-05-20T06:33:20.968Z,5.65
2023-05-20T06:34:24.318Z,5.02
2023-05-20T06:35:27.597Z,5.74
2023-05-20T06:36:33.676Z,4.67
2023-05-20T06:37:37.769Z,5.20
2023-05-20T06:38:41.406Z,5.26
2023-05-20T06:39:44.988Z,5.38
2023-05-20T06:40:49.963Z,5.14
2023-05-20T06:41:54.290Z,5.22
2023-05-20T06:43:05.303Z,5.02
2023-05-20T06:44:34.589Z,5.74
2023-05-20T06:45:50.309Z,5.21
2023-05-20T06:47:04.757Z,4.85
2023-05-20T06:48:08.924Z,4.73
2023-05-20T06:49:12.204Z,4.80
2023-05-20T06:50:15.902Z,4.83
2023-05-20T06:51:19.146Z,4.16
2023-05-20T06:52:25.597Z,4.28
2023-05-20T06:53:29.358Z,4.26
2023-05-20T06:54:34.917Z,5.00
2023-05-20T06:55:39.698Z,4.75
2023-05-20T06:56:43.542Z,5.06
2023-05-20T06:57:47.013Z,4.54
2023-05-20T06:58:52.858Z,4.83
2023-05-20T06:59:56.073Z,4.86
2023-05-20T07:00:59.510Z,4.89
2023-05-20T07:02:03.899Z,4.47
2023-05-20T07:03:07.655Z,4.88
2023-05-20T07:04:11.543Z,5.34
2023-05-20T07:05:15.140Z,4.95
2023-05-20T07:06:18.339Z,5.30
2023-05-20T07:07:21.727Z,6.48
2023-05-20T07:08:25.248Z,5.77
2023-05-20T07:09:28.967Z,5.37
2023-05-20T07:10:32.846Z,5.23
2023-05-20T07:11:36.670Z,5.26
2023-05-20T07:12:39.997Z,5.26
2023-05-20T07:13:43.517Z,4.87
2023-05-20T07:14:46.765Z,5.04
2023-05-20T07:15:50.245Z,4.84
2023-05-20T07:16:53.897Z,4.74
2023-05-20T07:17:57.791Z,4.64
2023-05-20T07:19:02.360Z,5.02
2023-05-20T07:20:06.681Z,4.79
2023-05-20T07:21:11.089Z,4.87
2023-05-20T07:22:28.060Z,4.93
2023-05-20T07:23:45.137Z,4.95
2023-05-20T07:24:48.471Z,4.64
2023-05-20T07:25:52.423Z,5.22
2023-05-20T07:26:55.932Z,5.12
2023-05-20T07:28:01.132Z,5.12
2023-05-20T07:29:05.837Z,5.20
2023-05-20T07:30:10.445Z,5.20
2023-05-20T07:31:15.847Z,4.83
2023-05-20T07:32:20.456Z,5.08
2023-05-20T07:33:24.008Z,4.90
2023-05-20T07:34:27.409Z,5.00
2023-05-20T07:35:30.668Z,4.90
2023-05-20T07:36:34.094Z,5.57
2023-05-20T07:37:41.571Z,4.44
2023-05-20T07:38:53.248Z,4.26
2023-05-20T07:40:06.300Z,4.51
2023-05-20T07:41:09.952Z,4.44
2023-05-20T07:42:13.260Z,4.32
2023-05-20T07:43:21.024Z,4.93
2023-05-20T07:44:24.417Z,4.60
2023-05-20T07:45:28.960Z,5.12
2023-05-20T07:46:32.493Z,4.85
2023-05-20T07:47:36.461Z,5.15
2023-05-20T07:48:39.730Z,5.12
2023-05-20T07:49:45.065Z,5.27
2023-05-20T07:50:48.542Z,4.64
2023-05-20T07:51:53.407Z,4.92
2023-05-20T07:52:57.122Z,4.83
2023-05-20T07:54:04.740Z,5.69
2023-05-20T07:55:08.893Z,5.67
2023-05-20T07:56:12.375Z,6.06
2023-05-20T07:57:16.186Z,5.96
2023-05-20T07:58:19.415Z,5.79
2023-05-20T07:59:22.847Z,5.82
2023-05-20T08:00:26.854Z,5.88
2023-05-20T08:01:30.640Z,5.58
2023-05-20T08:02:34.377Z,5.77
2023-05-20T08:03:38.046Z,6.12
2023-05-20T08:04:48.435Z,5.75
2023-05-20T08:05:51.790Z,5.31
2023-05-20T08:06:56.603Z,6.11
2023-05-20T08:08:22.599Z,5.81
2023-05-20T08:09:36.463Z,6.08
2023-05-20T08:10:40.539Z,5.95
2023-05-20T08:11:45.762Z,5.72
2023-05-20T08:12:51.008Z,6.35
2023-05-20T08:13:54.890Z,5.46
2023-05-20T08:15:00.449Z,5.91
2023-05-20T08:16:07.303Z,5.14
2023-05-20T08:17:10.778Z,6.56
2023-05-20T08:18:14.133Z,6.03
2023-05-20T08:19:17.373Z,6.22
2023-05-20T08:20:23.994Z,6.12
2023-05-20T08:21:27.468Z,5.83
2023-05-20T08:22:30.714Z,5.80
2023-05-20T08:23:36.775Z,5.59
2023-05-20T08:24:42.648Z,5.78
2023-05-20T08:25:49.647Z,5.36
2023-05-20T08:26:54.644Z,4.70
2023-05-20T08:28:04.633Z,5.83
2023-05-20T08:29:09.428Z,5.27
2023-05-20T08:30:13.266Z,5.49
2023-05-20T08:31:18.897Z,5.42
2023-05-20T08:32:22.494Z,5.79
2023-05-20T08:33:25.899Z,5.15
2023-05-20T08:34:29.250Z,5.14
2023-05-20T08:35:32.898Z,5.59
2023-05-20T08:36:36.611Z,6.00
2023-05-20T08:37:40.610Z,5.85
2023-05-20T08:38:44.953Z,5.88
2023-05-20T08:39:49.986Z,5.25
2023-05-20T08:40:56.265Z,4.93
2023-05-20T08:42:00.130Z,5.62
2023-05-20T08:43:03.618Z,5.92
2023-05-20T08:44:11.760Z,5.96
2023-05-20T08:45:19.962Z,5.35
2023-05-20T08:46:25.201Z,6.00
2023-05-20T08:47:30.476Z,6.45
2023-05-20T08:48:34.780Z,5.79
2023-05-20T08:49:38.472Z,6.26
2023-05-20T08:50:41.876Z,5.64
2023-05-20T08:51:46.917Z,6.23
2023-05-20T08:52:50.370Z,6.19
2023-05-20T08:53:53.921Z,5.49
2023-05-20T08:54:58.919Z,5.73
2023-05-20T08:56:06.240Z,5.74
2023-05-20T08:57:10.276Z,4.73
2023-05-20T08:58:16.232Z,6.19
2023-05-20T08:59:20.204Z,6.50
2023-05-20T09:00:27.922Z,6.31
2023-05-20T09:01:31.196Z,5.27
2023-05-20T09:02:34.525Z,5.58
2023-05-20T09:03:37.859Z,5.68
2023-05-20T09:04:41.353Z,6.20
2023-05-20T09:05:44.692Z,5.88
2023-05-20T09:06:48.082Z,5.90
2023-05-20T09:07:51.473Z,6.11
2023-05-20T09:08:54.753Z,6.03
2023-05-20T09:09:58.424Z,4.84
2023-05-20T09:11:02.466Z,4.66
2023-05-20T09:12:06.196Z,4.26
2023-05-20T09:13:11.424Z,4.09
2023-05-20T09:14:14.822Z,4.44
2023-05-20T09:15:18.204Z,3.95
2023-05-20T09:16:21.572Z,3.97
2023-05-20T09:17:25.268Z,3.81
2023-05-20T09:18:29.924Z,3.75
2023-05-20T09:19:34.678Z,3.59
2023-05-20T09:20:39.312Z,3.40
2023-05-20T09:21:43.624Z,3.04
2023-05-20T09:22:47.005Z,2.76
2023-05-20T09:23:50.300Z,2.80
2023-05-20T09:24:54.549Z,2.64
2023-05-20T09:25:57.735Z,2.53
2023-05-20T09:27:01.129Z,2.58
2023-05-20T09:28:07.253Z,2.81
2023-05-20T09:29:10.480Z,2.45
2023-05-20T09:30:14.876Z,2.33
2023-05-20T09:31:18.101Z,2.07
2023-05-20T09:32:29.266Z,1.96
2023-05-20T09:33:35.595Z,2.08
2023-05-20T09:34:39.824Z,2.23
2023-05-20T09:35:43.112Z,2.15
2023-05-20T09:36:46.817Z,2.29
2023-05-20T09:37:55.579Z,2.16
2023-05-20T09:39:06.598Z,1.95
2023-05-20T09:40:13.140Z,1.95
2023-05-20T09:41:16.357Z,1.64
2023-05-20T09:42:29.826Z,1.75
2023-05-20T09:43:33.448Z,1.62
2023-05-20T09:44:37.607Z,1.69
2023-05-20T09:45:41.562Z,1.35
2023-05-20T09:46:47.319Z,1.49
2023-05-20T09:47:53.505Z,1.69
2023-05-20T09:48:56.810Z,1.72
2023-05-20T09:50:04.691Z,1.45
2023-05-20T09:51:08.533Z,1.44
2023-05-20T09:52:13.797Z,1.68
2023-05-20T09:53:19.176Z,1.29
2023-05-20T09:54:25.492Z,1.43
2023-05-20T09:55:28.785Z,1.53
2023-05-20T09:56:32.487Z,1.28
2023-05-20T09:57:37.054Z,1.31
2023-05-20T09:58:43.259Z,1.20
2023-05-20T09:59:48.753Z,1.13
2023-05-20T10:00:52.748Z,1.05
2023-05-20T10:01:56.391Z,1.08
2023-05-20T10:03:01.719Z,1.10
2023-05-20T10:04:09.240Z,1.22
2023-05-20T10:05:28.197Z,0.85
2023-05-20T10:06:55.481Z,0.95
2023-05-20T10:08:10.991Z,0.97
2023-05-20T10:09:26.037Z,0.84
2023-05-20T10:10:56.846Z,1.02
2023-05-20T10:12:39.663Z,1.07
2023-05-20T10:14:10.165Z,1.19
2023-05-20T10:15:28.429Z,0.97
2023-05-20T10:17:09.663Z,1.10
2023-05-20T10:18:38.930Z,1.07
2023-05-20T10:19:42.699Z,0.80
2023-05-20T10:20:49.648Z,0.78
2023-05-20T10:22:02.743Z,0.88
2023-05-20T10:23:06.286Z,0.84
2023-05-20T10:24:13.077Z,0.82
2023-05-20T10:25:27.526Z,0.95
2023-05-20T10:26:42.078Z,0.98
2023-05-20T10:27:47.398Z,0.92
2023-05-20T10:28:50.920Z,1.00
2023-05-20T10:29:58.632Z,0.90
2023-05-20T10:31:02.409Z,0.93
2023-05-20T10:32:05.949Z,1.07
2023-05-20T10:33:09.462Z,1.07
2023-05-20T10:34:20.685Z,1.04
2023-05-20T10:35:28.356Z,1.34
2023-05-20T10:36:32.882Z,1.29
2023-05-20T10:37:44.687Z,1.10
2023-05-20T10:38:54.681Z,1.21
2023-05-20T10:40:13.420Z,1.32
2023-05-20T10:41:22.617Z,1.40
2023-05-20T10:42:31.039Z,1.08
2023-05-20T10:43:34.371Z,1.21
2023-05-20T10:44:48.610Z,1.33
2023-05-20T10:45:54.325Z,1.30
2023-05-20T10:48:35.237Z,1.50
2023-05-20T10:49:46.889Z,1.20
2023-05-20T10:50:50.639Z,1.38
2023-05-20T10:51:54.758Z,1.44
2023-05-20T10:53:13.249Z,1.34
2023-05-20T10:54:24.079Z,1.62
2023-05-20T10:55:27.366Z,1.59
2023-05-20T10:56:31.615Z,1.51
2023-05-20T10:57:35.756Z,1.43
2023-05-20T10:58:40.187Z,1.48
2023-05-20T10:59:43.626Z,1.64
2023-05-20T11:00:50.984Z,1.65
2023-05-20T11:01:55.793Z,1.95
2023-05-20T11:02:59.891Z,1.99
2023-05-20T11:04:05.876Z,2.13
2023-05-20T11:05:13.434Z,1.98
2023-05-20T11:06:19.019Z,1.86
2023-05-20T11:07:29.936Z,2.24
2023-05-20T11:08:33.281Z,1.76
2023-05-20T11:09:36.790Z,2.15
2023-05-20T11:10:40.331Z,2.32
2023-05-20T11:11:44.083Z,2.15
2023-05-20T11:12:50.448Z,2.31
2023-05-20T11:13:54.062Z,2.10
2023-05-20T11:14:57.549Z,2.17
2023-05-20T11:16:02.710Z,2.17
2023-05-20T11:17:09.112Z,1.94
2023-05-20T11:18:16.158Z,1.94
2023-05-20T11:19:22.113Z,2.01
2023-05-20T11:20:27.135Z,1.69
2023-05-20T11:21:30.491Z,1.87
2023-05-20T11:22:33.781Z,1.74
2023-05-20T11:23:40.434Z,1.49
2023-05-20T11:24:44.046Z,1.47
2023-05-20T11:25:47.488Z,1.71
2023-05-20T11:26:50.854Z,1.41
2023-05-20T11:27:54.091Z,1.25
2023-05-20T11:28:59.269Z,1.43
2023-05-20T11:30:04.804Z,1.47
2023-05-20T11:31:08.357Z,1.28
2023-05-20T11:32:11.666Z,1.39
2023-05-20T11:33:17.526Z,1.36
2023-05-20T11:34:26.422Z,1.59
2023-05-20T11:35:34.016Z,1.53
2023-05-20T11:36:44.680Z,1.47
2023-05-20T11:37:54.720Z,1.63
2023-05-20T11:39:01.719Z,1.62
2023-05-20T11:40:10.346Z,1.57
2023-05-20T11:41:14.267Z,1.68
2023-05-20T11:42:17.828Z,1.41
2023-05-20T11:43:22.303Z,1.41
2023-05-20T11:44:26.746Z,1.89
2023-05-20T11:45:57.407Z,1.87
2023-05-20T11:47:03.173Z,2.05
2023-05-20T11:48:07.577Z,2.01
2023-05-20T11:49:11.364Z,2.16
2023-05-20T11:50:22.526Z,1.91
2023-05-20T11:51:28.806Z,2.09
2023-05-20T11:52:35.100Z,2.30
2023-05-20T11:53:42.624Z,2.63
2023-05-20T11:54:45.972Z,2.55
2023-05-20T11:55:53.523Z,2.81
2023-05-20T11:56:57.449Z,2.38
2023-05-20T11:58:02.604Z,2.29
2023-05-20T11:59:07.604Z,2.35
2023-05-20T12:00:11.831Z,2.65
2023-05-20T12:02:24.101Z,2.68
2023-05-20T12:03:28.154Z,2.66
2023-05-20T12:04:31.511Z,2.84
2023-05-20T12:05:34.816Z,3.08
2023-05-20T12:06:38.399Z,2.99
2023-05-20T12:07:41.667Z,2.90
2023-05-20T12:08:45.016Z,2.91
2023-05-20T12:09:48.234Z,2.78
2023-05-20T12:10:51.636Z,2.85
2023-05-20T12:11:57.282Z,3.08
2023-05-20T12:13:00.810Z,3.51
2023-05-20T12:14:06.677Z,3.06
2023-05-20T12:15:10.449Z,3.06
2023-05-20T12:16:13.729Z,3.02
2023-05-20T12:17:16.956Z,2.99
2023-05-20T12:18:20.222Z,3.12
2023-05-20T12:19:23.569Z,2.94
2023-05-20T12:20:27.351Z,3.09
2023-05-20T12:21:32.253Z,2.76
2023-05-20T12:22:35.611Z,2.70
2023-05-20T12:23:38.790Z,3.39
2023-05-20T12:24:42.372Z,3.56
2023-05-20T12:25:47.975Z,3.32
2023-05-20T12:26:51.540Z,2.99
2023-05-20T12:27:55.321Z,3.52
2023-05-20T12:28:58.612Z,3.05
2023-05-20T12:30:01.814Z,2.88
2023-05-20T12:31:05.089Z,2.98
2023-05-20T12:32:08.648Z,3.39
2023-05-20T12:33:11.915Z,3.43
2023-05-20T12:34:15.191Z,2.85
2023-05-20T12:35:19.137Z,3.27
2023-05-20T12:36:22.624Z,3.46
2023-05-20T12:37:26.796Z,3.49
2023-05-20T12:38:30.251Z,3.24
2023-05-20T12:39:33.526Z,3.62
2023-05-20T12:40:38.244Z,3.43
2023-05-20T12:41:43.147Z,4.14
2023-05-20T12:42:46.504Z,3.75
2023-05-20T12:43:49.958Z,3.85
2023-05-20T12:44:53.203Z,4.36
2023-05-20T12:45:56.761Z,3.91
2023-05-20T12:47:00.205Z,3.72
2023-05-20T12:48:03.864Z,3.89
2023-05-20T12:49:07.736Z,3.85
2023-05-20T12:50:11.442Z,4.33
2023-05-20T12:51:14.735Z,4.30
2023-05-20T12:52:22.543Z,4.14
2023-05-20T12:53:26.266Z,3.80
2023-05-20T12:54:29.589Z,4.13
2023-05-20T12:55:33.023Z,4.56
2023-05-20T12:56:36.829Z,3.98
2023-05-20T12:57:41.682Z,4.31
2023-05-20T12:58:44.900Z,3.91
2023-05-20T12:59:48.160Z,4.47
2023-05-20T13:00:51.485Z,4.19
2023-05-20T13:01:54.926Z,3.98
2023-05-20T13:02:58.366Z,3.98
2023-05-20T13:04:01.809Z,4.16
2023-05-20T13:05:06.367Z,4.40
2023-05-20T13:06:09.803Z,4.71
2023-05-20T13:07:13.301Z,4.85
2023-05-20T13:08:16.811Z,6.52
2023-05-20T13:09:20.052Z,6.68
2023-05-20T13:10:24.198Z,8.86
2023-05-20T13:11:27.408Z,9.60
2023-05-20T13:12:30.778Z,10.80
2023-05-20T13:13:34.072Z,11.15
2023-05-20T13:14:37.314Z,10.36
2023-05-20T13:15:40.775Z,9.81
2023-05-20T13:16:44.212Z,9.96
2023-05-20T13:17:47.487Z,10.44
2023-05-20T13:18:51.347Z,9.26
2023-05-20T13:19:55.558Z,9.33
2023-05-20T13:20:58.897Z,8.15
2023-05-20T13:22:02.330Z,8.03
2023-05-20T13:23:05.607Z,7.46
2023-05-20T13:24:09.700Z,7.33
2023-05-20T13:25:13.156Z,7.72
2023-05-20T13:26:18.167Z,7.23
2023-05-20T13:27:22.093Z,8.26
2023-05-20T13:28:25.320Z,7.49
2023-05-20T13:29:32.607Z,7.79
2023-05-20T13:30:36.064Z,8.73
2023-05-20T13:31:40.603Z,8.67
2023-05-20T13:32:43.945Z,8.46
2023-05-20T13:33:47.415Z,8.09
2023-05-20T13:34:50.663Z,7.52
2023-05-20T13:35:53.997Z,7.56
2023-05-20T13:36:57.292Z,8.18
2023-05-20T13:38:00.533Z,8.08
2023-05-20T13:39:03.932Z,8.24
2023-05-20T13:40:08.021Z,8.22
2023-05-20T13:41:11.455Z,8.40
2023-05-20T13:42:14.899Z,8.95
2023-05-20T13:43:18.470Z,8.64
2023-05-20T13:44:22.049Z,8.51
2023-05-20T13:45:25.345Z,8.74
2023-05-20T13:46:28.587Z,8.90
2023-05-20T13:47:32.008Z,9.36
2023-05-20T13:48:35.517Z,8.77
2023-05-20T13:49:38.924Z,8.25
2023-05-20T13:50:42.205Z,8.21
2023-05-20T13:51:46.175Z,10.20
2023-05-20T13:52:50.474Z,9.90
2023-05-20T13:53:53.751Z,10.37
2023-05-20T13:54:57.031Z,10.67
2023-05-20T13:56:00.956Z,11.21
2023-05-20T13:57:08.452Z,11.51
2023-05-20T13:58:11.784Z,10.86
2023-05-20T13:59:15.029Z,11.68
2023-05-20T14:00:18.563Z,11.91
2023-05-20T14:01:22.565Z,11.36
2023-05-20T14:02:25.909Z,11.30
2023-05-20T14:03:29.283Z,11.09
2023-05-20T14:04:32.774Z,11.94
2023-05-20T14:05:36.362Z,10.87
2023-05-20T14:06:40.505Z,11.58
2023-05-20T14:07:43.831Z,11.59
2023-05-20T14:08:48.288Z,11.38
2023-05-20T14:09:51.608Z,12.07
2023-05-20T14:10:56.405Z,11.61
2023-05-20T14:11:59.721Z,11.77
2023-05-20T14:13:03.058Z,12.61
2023-05-20T14:14:06.596Z,12.43
2023-05-20T14:15:10.489Z,12.42
2023-05-20T14:16:13.900Z,13.09
2023-05-20T14:17:17.493Z,13.30
2023-05-20T14:18:21.580Z,13.92
2023-05-20T14:19:25.071Z,12.78
2023-05-20T14:20:28.530Z,13.51
2023-05-20T14:21:32.826Z,13.22
2023-05-20T14:22:36.288Z,12.44
2023-05-20T14:23:41.825Z,10.16
2023-05-20T14:24:45.214Z,8.30
2023-05-20T14:25:48.502Z,9.50
2023-05-20T14:26:51.963Z,9.30